Terminal Aerodrome Forecast
Issued by NWS

Home | Current Version | Previous Version | Text Only | Print | Product List | Glossary On
Versions: 1 2 3 4 5 6 7 8 9 10 11 12 13 14 15 16 17 18 19 20 21 22 23 24 25 26 27 28 29 30 31 32
000
FTUS41 KALY 180700 AAA
TAFPSF
TAF AMD
KPSF 180756Z 1808/1906 VRB03KT 2SM BR BKN003
      TEMPO 1808/1810 1/4SM FG VV001
     FM181000 30003KT P6SM BKN070
     FM181500 32006KT P6SM BKN050
     FM190300 36008KT P6SM BKN040=

USA.gov is the U.S. government's official web portal to all federal, state and local government web resources and services.